createdAt,value
2022-10-20T00:02:43.194Z,7.82
2022-10-20T00:05:44.633Z,7.85
2022-10-20T00:08:47.033Z,8.75
2022-10-20T00:11:48.466Z,8.60
2022-10-20T00:14:49.862Z,8.30
2022-10-20T00:17:51.343Z,8.43
2022-10-20T00:20:53.733Z,9.63
2022-10-20T00:23:55.740Z,8.52
2022-10-20T00:26:57.159Z,11.25
2022-10-20T00:29:58.567Z,9.10
2022-10-20T00:33:00.321Z,9.05
2022-10-20T00:36:03.570Z,9.82
2022-10-20T00:39:05.668Z,10.10
2022-10-20T00:42:07.092Z,9.30
2022-10-20T00:45:20.978Z,10.57
2022-10-20T00:48:28.022Z,10.27
2022-10-20T00:51:33.133Z,10.20
2022-10-20T00:54:34.717Z,9.77
2022-10-20T00:57:37.350Z,10.32
2022-10-20T01:00:42.256Z,10.43
2022-10-20T01:03:50.298Z,10.65
2022-10-20T01:06:51.743Z,10.82
2022-10-20T01:09:53.640Z,9.88
2022-10-20T01:13:15.467Z,10.38
2022-10-20T01:16:45.964Z,9.75
2022-10-20T01:20:27.723Z,10.77
2022-10-20T01:23:48.207Z,10.73
2022-10-20T01:27:19.397Z,10.65
2022-10-20T01:30:22.829Z,10.70
2022-10-20T01:33:39.541Z,11.07
2022-10-20T01:36:52.736Z,11.52
2022-10-20T01:40:01.951Z,10.85
2022-10-20T01:43:08.943Z,11.27
2022-10-20T01:46:12.315Z,11.35
2022-10-20T01:49:14.681Z,11.13
2022-10-20T01:52:17.302Z,12.00
2022-10-20T01:55:18.709Z,11.93
2022-10-20T01:58:29.264Z,11.82
2022-10-20T02:01:57.911Z,12.00
2022-10-20T02:05:25.180Z,12.07
2022-10-20T02:08:38.210Z,11.70
2022-10-20T02:11:51.895Z,12.00
2022-10-20T02:14:54.655Z,12.47
2022-10-20T02:18:03.194Z,12.50
2022-10-20T02:21:06.563Z,12.23
2022-10-20T02:24:09.926Z,12.20
2022-10-20T02:27:25.412Z,12.77
2022-10-20T02:30:26.983Z,12.77
2022-10-20T02:33:30.177Z,12.93
2022-10-20T02:36:31.615Z,12.05
2022-10-20T02:39:33.035Z,13.48
2022-10-20T02:42:34.425Z,15.13
2022-10-20T02:45:35.804Z,14.15
2022-10-20T02:48:37.256Z,13.98
2022-10-20T02:51:38.672Z,13.48
2022-10-20T02:54:40.472Z,14.25
2022-10-20T02:57:41.869Z,14.63
2022-10-20T03:00:43.264Z,14.32
2022-10-20T03:03:44.670Z,15.45
2022-10-20T03:06:46.107Z,14.50
2022-10-20T03:09:47.572Z,15.68
2022-10-20T03:12:49.018Z,15.38
2022-10-20T03:15:50.454Z,15.27
2022-10-20T03:18:51.877Z,15.52
2022-10-20T03:21:53.310Z,15.80
2022-10-20T03:24:54.729Z,15.63
2022-10-20T03:27:56.117Z,15.13
2022-10-20T03:30:58.352Z,15.40
2022-10-20T03:33:59.772Z,15.93
2022-10-20T03:37:02.057Z,16.10
2022-10-20T03:40:03.767Z,16.38
2022-10-20T03:43:05.208Z,16.25
2022-10-20T03:46:11.442Z,16.65
2022-10-20T03:49:12.835Z,16.02
2022-10-20T03:52:14.282Z,18.27
2022-10-20T03:55:16.905Z,16.98
2022-10-20T03:58:18.686Z,16.90
2022-10-20T04:01:24.274Z,16.65
2022-10-20T04:04:25.724Z,16.80
2022-10-20T04:07:27.490Z,17.40
2022-10-20T04:10:28.884Z,16.83
2022-10-20T04:13:30.304Z,16.88
2022-10-20T04:16:31.825Z,16.30
2022-10-20T04:19:33.299Z,16.83
2022-10-20T04:22:35.119Z,16.20
2022-10-20T04:25:42.932Z,16.45
2022-10-20T04:28:44.371Z,17.08
2022-10-20T04:31:48.286Z,17.20
2022-10-20T04:34:50.811Z,15.40
2022-10-20T04:37:54.220Z,14.75
2022-10-20T04:41:00.299Z,16.50
2022-10-20T04:44:04.808Z,16.00
2022-10-20T04:47:06.200Z,15.32
2022-10-20T04:50:08.309Z,15.95
2022-10-20T04:53:09.731Z,16.20
2022-10-20T04:56:16.873Z,16.17
2022-10-20T04:59:18.270Z,16.52
2022-10-20T05:02:19.672Z,16.40
2022-10-20T05:05:21.125Z,16.95
2022-10-20T05:08:22.550Z,16.77
2022-10-20T05:11:25.468Z,17.33
2022-10-20T05:14:27.105Z,15.65
2022-10-20T05:17:29.960Z,16.85
2022-10-20T05:20:36.839Z,16.98
2022-10-20T05:23:47.577Z,16.85
2022-10-20T05:26:48.964Z,17.20
2022-10-20T05:29:50.458Z,17.33
2022-10-20T05:32:51.852Z,17.92
2022-10-20T05:35:53.240Z,17.30
2022-10-20T05:38:55.795Z,17.83
2022-10-20T05:41:57.215Z,16.75
2022-10-20T05:44:58.622Z,16.73
2022-10-20T05:48:00.012Z,16.63
2022-10-20T05:51:17.174Z,16.80
2022-10-20T05:54:18.810Z,16.85
2022-10-20T05:57:20.651Z,17.38
2022-10-20T06:00:22.178Z,17.73
2022-10-20T06:03:26.083Z,16.73
2022-10-20T06:06:30.774Z,17.10
2022-10-20T06:09:32.576Z,19.02
2022-10-20T06:12:35.402Z,18.38
2022-10-20T06:15:36.952Z,18.13
2022-10-20T06:18:39.157Z,18.20
2022-10-20T06:21:40.646Z,18.17
2022-10-20T06:24:42.041Z,17.40
2022-10-20T06:27:43.471Z,18.73
2022-10-20T06:30:44.873Z,18.90
2022-10-20T06:33:47.571Z,17.88
2022-10-20T06:36:50.014Z,17.13
2022-10-20T06:39:53.940Z,17.40
2022-10-20T06:46:04.782Z,19.20
2022-10-20T06:49:07.331Z,18.00
2022-10-20T06:52:08.750Z,18.95
2022-10-20T06:55:10.205Z,19.02
2022-10-20T06:58:11.738Z,18.08
2022-10-20T07:01:24.900Z,17.58
2022-10-20T07:04:26.345Z,17.55
2022-10-20T07:07:27.763Z,17.58
2022-10-20T07:10:29.209Z,16.95
2022-10-20T07:13:31.696Z,18.23
2022-10-20T07:16:34.873Z,17.17
2022-10-20T07:19:36.726Z,16.83
2022-10-20T07:22:38.645Z,16.55
2022-10-20T07:25:40.321Z,16.75
2022-10-20T07:28:44.576Z,16.55
2022-10-20T07:34:48.319Z,16.80
2022-10-20T07:37:50.293Z,16.20
2022-10-20T07:40:52.656Z,16.48
2022-10-20T07:43:55.504Z,16.42
2022-10-20T07:46:56.955Z,15.07
2022-10-20T07:49:58.453Z,15.07
2022-10-20T07:52:59.860Z,14.98
2022-10-20T07:56:01.290Z,14.55
2022-10-20T07:59:03.337Z,14.57
2022-10-20T08:02:04.934Z,15.70
2022-10-20T08:05:07.675Z,15.65
2022-10-20T08:08:09.073Z,14.68
2022-10-20T08:11:10.843Z,15.15
2022-10-20T08:14:12.289Z,15.57
2022-10-20T08:17:13.681Z,14.13
2022-10-20T08:20:27.226Z,14.20
2022-10-20T08:23:28.821Z,15.50
2022-10-20T08:26:30.214Z,15.20
2022-10-20T08:29:31.621Z,14.70
2022-10-20T08:32:33.224Z,15.50
2022-10-20T08:35:34.638Z,14.80
2022-10-20T08:38:37.815Z,15.00
2022-10-20T08:42:03.195Z,15.07
2022-10-20T08:45:06.607Z,14.80
2022-10-20T08:48:16.279Z,14.55
2022-10-20T08:51:38.140Z,15.20
2022-10-20T08:54:39.616Z,14.73
2022-10-20T08:57:41.384Z,15.20
2022-10-20T09:00:43.748Z,15.77
2022-10-20T09:03:45.386Z,14.57
2022-10-20T09:06:51.009Z,14.65
2022-10-20T09:09:54.332Z,15.38
2022-10-20T09:12:56.139Z,15.47
2022-10-20T09:16:02.900Z,15.70
2022-10-20T09:19:07.457Z,15.10
2022-10-20T09:22:13.355Z,15.68
2022-10-20T09:25:20.891Z,15.45
2022-10-20T09:28:25.768Z,15.32
2022-10-20T09:31:40.105Z,14.90
2022-10-20T09:34:41.517Z,15.63
2022-10-20T09:37:45.242Z,15.38
2022-10-20T09:41:02.135Z,15.38
2022-10-20T09:44:08.932Z,14.98
2022-10-20T09:47:13.487Z,15.27
2022-10-20T09:50:23.351Z,15.52
2022-10-20T09:53:40.896Z,15.50
2022-10-20T09:56:44.308Z,15.00
2022-10-20T09:59:48.217Z,15.45
2022-10-20T10:03:07.523Z,15.23
2022-10-20T10:06:21.175Z,14.65
2022-10-20T10:09:34.722Z,14.90
2022-10-20T10:12:36.888Z,15.48
2022-10-20T10:15:40.521Z,16.17
2022-10-20T10:18:53.967Z,15.70
2022-10-20T10:21:58.449Z,16.75
2022-10-20T10:25:01.045Z,15.88
2022-10-20T10:28:24.182Z,17.45
2022-10-20T10:31:26.381Z,17.15
2022-10-20T10:34:36.874Z,17.40
2022-10-20T10:37:41.351Z,17.67
2022-10-20T10:40:53.838Z,16.90
2022-10-20T10:44:07.505Z,17.00
2022-10-20T10:47:17.893Z,17.77
2022-10-20T10:50:58.834Z,17.15
2022-10-20T10:54:32.558Z,17.15
2022-10-20T10:57:46.380Z,16.90
2022-10-20T11:00:59.819Z,16.55
2022-10-20T11:04:36.938Z,17.63
2022-10-20T11:07:50.473Z,16.63
2022-10-20T11:11:06.576Z,18.77
2022-10-20T11:14:37.862Z,17.77
2022-10-20T11:18:02.866Z,17.02
2022-10-20T11:21:39.850Z,18.98
2022-10-20T11:24:56.494Z,18.45
2022-10-20T11:27:58.257Z,18.83
2022-10-20T11:31:00.721Z,18.45
2022-10-20T11:34:10.598Z,18.83
2022-10-20T11:37:17.993Z,17.50
2022-10-20T11:40:32.231Z,17.58
2022-10-20T11:43:46.549Z,16.65
2022-10-20T11:49:52.593Z,16.58
2022-10-20T11:53:17.966Z,16.50
2022-10-20T11:56:58.627Z,16.52
2022-10-20T12:00:02.921Z,17.05
2022-10-20T12:03:21.394Z,17.83
2022-10-20T12:06:41.570Z,16.88
2022-10-20T12:10:14.042Z,18.23
2022-10-20T12:13:40.794Z,17.60
2022-10-20T12:16:54.144Z,18.50
2022-10-20T12:20:20.283Z,18.42
2022-10-20T12:23:43.529Z,19.30
2022-10-20T12:27:06.802Z,19.20
2022-10-20T12:30:17.594Z,18.85
2022-10-20T12:33:34.074Z,19.15
2022-10-20T12:36:37.682Z,19.92
2022-10-20T12:39:39.434Z,20.92
2022-10-20T12:42:47.973Z,20.63
2022-10-20T12:45:50.898Z,21.45
2022-10-20T12:48:55.987Z,20.35
2022-10-20T12:51:59.082Z,19.10
2022-10-20T12:55:08.418Z,20.98
2022-10-20T12:58:34.216Z,21.63
2022-10-20T13:02:09.616Z,21.58
2022-10-20T13:05:13.764Z,21.25
2022-10-20T13:11:37.791Z,20.95
2022-10-20T13:14:48.331Z,21.75
2022-10-20T13:17:57.128Z,21.70
2022-10-20T13:21:08.404Z,22.95
2022-10-20T13:24:14.885Z,22.25
2022-10-20T13:27:16.545Z,21.52
2022-10-20T13:30:21.983Z,20.65
2022-10-20T13:34:08.924Z,19.65
2022-10-20T13:37:38.229Z,18.75
2022-10-20T13:40:56.144Z,17.45
2022-10-20T13:44:23.249Z,16.77
2022-10-20T13:47:45.761Z,15.95
2022-10-20T13:50:55.866Z,15.68
2022-10-20T13:54:01.762Z,16.90
2022-10-20T13:57:04.006Z,14.45
2022-10-20T14:00:21.884Z,15.40
2022-10-20T14:03:23.335Z,15.30
2022-10-20T14:06:29.888Z,15.93
2022-10-20T14:09:31.432Z,16.25
2022-10-20T14:12:33.297Z,15.85
2022-10-20T14:15:36.937Z,16.15
2022-10-20T14:18:38.391Z,16.98
2022-10-20T14:21:46.190Z,17.02
2022-10-20T14:24:50.196Z,16.33
2022-10-20T14:30:53.180Z,15.52
2022-10-20T14:33:54.657Z,17.38
2022-10-20T14:36:58.139Z,17.05
2022-10-20T14:40:02.285Z,17.02
2022-10-20T14:43:11.620Z,15.90
2022-10-20T14:46:28.638Z,16.40
2022-10-20T14:49:35.188Z,17.38
2022-10-20T14:52:37.194Z,17.95
2022-10-20T14:55:38.878Z,17.80
2022-10-20T14:59:01.532Z,17.85
2022-10-20T15:02:09.027Z,17.67
2022-10-20T15:05:37.062Z,19.30
2022-10-20T15:08:38.604Z,18.60
2022-10-20T15:11:40.034Z,18.73
2022-10-20T15:14:45.010Z,18.80
2022-10-20T15:17:49.089Z,18.27
2022-10-20T15:20:52.400Z,17.75
2022-10-20T15:23:53.801Z,17.52
2022-10-20T15:26:55.906Z,17.98
2022-10-20T15:29:57.375Z,16.98
2022-10-20T15:32:59.123Z,15.75
2022-10-20T15:36:00.525Z,16.30
2022-10-20T15:39:03.674Z,16.88
2022-10-20T15:42:05.094Z,16.73
2022-10-20T15:45:17.184Z,17.52
2022-10-20T15:48:18.677Z,18.50
2022-10-20T15:51:25.423Z,18.55
2022-10-20T15:54:26.869Z,20.10
2022-10-20T15:57:28.299Z,19.48
2022-10-20T16:00:29.772Z,20.58
2022-10-20T16:03:31.227Z,20.70
2022-10-20T16:06:32.681Z,20.00
2022-10-20T16:09:34.070Z,21.17
2022-10-20T16:12:35.965Z,20.73
2022-10-20T16:15:37.582Z,21.30
2022-10-20T16:18:39.050Z,21.85
2022-10-20T16:21:40.889Z,21.92
2022-10-20T16:24:42.295Z,20.95
2022-10-20T16:27:43.862Z,24.25
2022-10-20T16:30:45.322Z,23.65
2022-10-20T16:33:46.800Z,25.95
2022-10-20T16:36:49.813Z,29.38
2022-10-20T16:39:51.437Z,28.77
2022-10-20T16:42:52.855Z,30.02
2022-10-20T16:45:54.756Z,29.17
2022-10-20T16:48:56.156Z,31.75
2022-10-20T16:51:57.800Z,31.10
2022-10-20T16:54:59.342Z,31.33
2022-10-20T16:58:00.753Z,33.05
2022-10-20T17:01:07.607Z,32.15
2022-10-20T17:04:12.019Z,34.08
2022-10-20T17:07:13.884Z,34.47
2022-10-20T17:10:15.378Z,36.22
2022-10-20T17:13:17.210Z,36.00
2022-10-20T17:16:26.140Z,34.83
2022-10-20T17:19:30.325Z,35.35
2022-10-20T17:22:32.671Z,38.15
2022-10-20T17:25:34.307Z,39.28
2022-10-20T17:28:37.713Z,37.88
2022-10-20T17:31:39.172Z,39.10
2022-10-20T17:34:40.581Z,37.88
2022-10-20T17:37:42.008Z,39.00
2022-10-20T17:40:43.407Z,38.65
2022-10-20T17:43:44.868Z,38.65
2022-10-20T17:46:46.264Z,39.15
2022-10-20T17:49:47.682Z,38.13
2022-10-20T17:52:49.091Z,37.67
2022-10-20T17:55:50.485Z,38.22
2022-10-20T17:58:52.012Z,37.80
2022-10-20T18:01:53.452Z,36.17
2022-10-20T18:04:55.059Z,35.08
2022-10-20T18:07:56.489Z,36.38
2022-10-20T18:10:57.884Z,35.15
2022-10-20T18:14:00.101Z,35.20
2022-10-20T18:17:01.805Z,36.47
2022-10-20T18:20:04.144Z,35.60
2022-10-20T18:23:05.575Z,40.17
2022-10-20T18:26:09.750Z,37.90
2022-10-20T18:32:13.122Z,36.58
2022-10-20T18:35:14.673Z,37.58
2022-10-20T18:38:16.114Z,38.13
2022-10-20T18:41:28.781Z,38.72
2022-10-20T18:47:36.930Z,39.20
2022-10-20T18:50:38.521Z,38.33
2022-10-20T18:56:47.293Z,36.42
2022-10-20T18:59:49.850Z,35.88
2022-10-20T19:02:51.272Z,34.78
2022-10-20T19:05:58.931Z,35.03
2022-10-20T19:09:09.145Z,35.30
2022-10-20T19:12:10.889Z,35.92
2022-10-20T19:15:12.322Z,36.22
2022-10-20T19:18:14.915Z,37.78
2022-10-20T19:21:17.538Z,36.15
2022-10-20T19:24:22.440Z,35.45
2022-10-20T19:27:27.498Z,33.78
2022-10-20T19:30:33.981Z,33.90
2022-10-20T19:33:35.389Z,33.67
2022-10-20T19:36:36.985Z,32.25
2022-10-20T19:39:41.403Z,30.38
2022-10-20T19:42:42.812Z,30.02
2022-10-20T19:45:47.748Z,32.08
2022-10-20T19:48:51.477Z,32.75
2022-10-20T19:51:53.195Z,33.75
2022-10-20T19:54:54.576Z,32.42
2022-10-20T19:57:55.986Z,33.13
2022-10-20T20:00:58.927Z,31.95
2022-10-20T20:04:04.224Z,30.25
2022-10-20T20:07:08.427Z,30.35
2022-10-20T20:10:10.134Z,31.15
2022-10-20T20:13:11.522Z,29.85
2022-10-20T20:16:12.904Z,29.85
2022-10-20T20:19:15.427Z,29.40
2022-10-20T20:22:16.851Z,30.77
2022-10-20T20:25:18.262Z,30.33
2022-10-20T20:28:19.674Z,31.13
2022-10-20T20:31:21.977Z,29.88
2022-10-20T20:34:23.489Z,29.80
2022-10-20T20:37:25.289Z,29.95
2022-10-20T20:40:26.761Z,30.05
2022-10-20T20:43:28.993Z,29.15
2022-10-20T20:46:30.894Z,30.55
2022-10-20T20:49:33.125Z,30.02
2022-10-20T20:52:34.722Z,29.45
2022-10-20T20:55:36.103Z,29.75
2022-10-20T20:58:38.027Z,31.40
2022-10-20T21:01:39.435Z,29.95
2022-10-20T21:04:40.914Z,31.58
2022-10-20T21:07:42.297Z,31.65
2022-10-20T21:10:43.668Z,31.08
2022-10-20T21:13:45.897Z,33.42
2022-10-20T21:16:47.339Z,34.00
2022-10-20T21:19:48.747Z,33.35
2022-10-20T21:22:50.138Z,34.55
2022-10-20T21:25:51.554Z,32.10
2022-10-20T21:28:53.295Z,32.80
2022-10-20T21:31:54.702Z,34.10
2022-10-20T21:34:56.095Z,34.90
2022-10-20T21:37:57.504Z,35.97
2022-10-20T21:41:29.739Z,34.78
2022-10-20T21:44:31.354Z,33.17
2022-10-20T21:47:32.812Z,33.65
2022-10-20T21:50:37.093Z,33.33
2022-10-20T21:53:39.288Z,32.72
2022-10-20T21:56:41.806Z,33.60
2022-10-20T21:59:43.223Z,33.72
2022-10-20T22:02:48.165Z,32.60
2022-10-20T22:05:49.714Z,33.10
2022-10-20T22:08:53.570Z,36.50
2022-10-20T22:11:56.421Z,31.73
2022-10-20T22:14:57.815Z,33.67
2022-10-20T22:17:59.202Z,33.55
2022-10-20T22:21:08.664Z,33.35
2022-10-20T22:24:14.436Z,33.97
2022-10-20T22:27:25.350Z,33.72
2022-10-20T22:30:37.275Z,33.97
2022-10-20T22:33:38.678Z,34.72
2022-10-20T22:36:40.445Z,33.63
2022-10-20T22:39:41.860Z,34.40
2022-10-20T22:42:43.335Z,33.15
2022-10-20T22:45:44.720Z,34.15
2022-10-20T22:48:46.283Z,34.95
2022-10-20T22:51:47.808Z,34.63
2022-10-20T22:54:49.215Z,34.20
2022-10-20T22:57:51.870Z,33.95
2022-10-20T23:00:53.364Z,34.38
2022-10-20T23:03:54.794Z,34.33
2022-10-20T23:10:07.239Z,34.33
2022-10-20T23:13:08.653Z,34.85
2022-10-20T23:16:11.133Z,34.38
2022-10-20T23:19:13.038Z,35.13
2022-10-20T23:22:14.504Z,32.75
2022-10-20T23:25:16.090Z,32.45
2022-10-20T23:28:18.621Z,34.85
2022-10-20T23:31:21.707Z,37.10
2022-10-20T23:34:23.377Z,35.63
2022-10-20T23:37:24.808Z,35.20
2022-10-20T23:40:26.236Z,34.55
2022-10-20T23:43:27.701Z,35.00
2022-10-20T23:46:29.143Z,35.60
2022-10-20T23:49:30.578Z,35.20
2022-10-20T23:52:32.059Z,33.55
2022-10-20T23:55:33.521Z,32.80
2022-10-20T23:58:35.372Z,31.88
